Time;durP1;ratioP1;P1;durP2;ratioP2;P2;SDS_P1;SDS_P2;PMS_P1;PMS_P2;Temp;Humidity;BMP_temperature;BMP_pressure;BME280_temperature;BME280_humidity;BME280_pressure;Samples;Min_cycle;Max_cycle;Signal;HPM_P1;HPM_P2
2023/01/29 00:00:19;;;;;;;20.00;9.00;;;;;;;0.07;100.00;101593.81;20886311;28;20103;-71
2023/01/29 00:10:20;;;;;;;20.40;8.85;;;;;;;-0.17;100.00;101610.72;20888189;28;20060;-71
2023/01/29 00:20:21;;;;;;;14.63;7.85;;;;;;;-0.11;100.00;101609.28;20888904;28;20485;-71
2023/01/29 00:30:23;;;;;;;17.20;7.72;;;;;;;-0.31;100.00;101597.19;20887238;28;20405;-71
2023/01/29 00:40:24;;;;;;;16.13;7.55;;;;;;;-0.40;100.00;101597.63;20889022;28;20060;-70
2023/01/29 00:50:43;;;;;;;16.60;7.95;;;;;;;-0.39;100.00;101593.34;20883033;28;20049;-71
2023/01/29 01:01:02;;;;;;;16.38;8.18;;;;;;;-0.56;100.00;101602.84;20947322;23;20048;-70
2023/01/29 01:11:03;;;;;;;18.08;8.38;;;;;;;-0.49;100.00;101612.63;20902997;28;20136;-68
2023/01/29 01:21:04;;;;;;;19.05;10.07;;;;;;;-0.41;100.00;101611.31;20902201;28;20045;-68
2023/01/29 01:31:06;;;;;;;15.10;7.60;;;;;;;-0.49;100.00;101627.19;20900720;28;20099;-68
2023/01/29 01:41:07;;;;;;;16.90;8.10;;;;;;;-0.44;100.00;101623.13;20903410;28;20056;-69
2023/01/29 01:51:08;;;;;;;19.23;8.00;;;;;;;-0.59;100.00;101620.69;20900891;28;20516;-69
2023/01/29 02:01:27;;;;;;;15.80;7.32;;;;;;;-0.62;100.00;101605.13;20897742;28;20056;-69
2023/01/29 02:11:46;;;;;;;19.33;8.88;;;;;;;-0.50;100.00;101610.84;20896503;28;20045;-69
2023/01/29 02:22:05;;;;;;;18.98;8.68;;;;;;;-0.54;100.00;101614.09;20899216;28;20501;-70
2023/01/29 02:32:24;;;;;;;18.58;8.93;;;;;;;-0.49;100.00;101604.91;20895929;28;20057;-69
2023/01/29 02:42:26;;;;;;;19.98;9.15;;;;;;;-0.66;100.00;101614.38;20895981;28;20080;-69
2023/01/29 02:52:27;;;;;;;19.00;9.02;;;;;;;-0.56;100.00;101595.13;20895654;28;20068;-69
2023/01/29 03:02:28;;;;;;;22.48;10.68;;;;;;;-0.68;100.00;101587.69;20894000;28;20460;-69
2023/01/29 03:12:32;;;;;;;18.55;9.05;;;;;;;-0.72;100.00;101587.47;20893590;28;20048;-69
2023/01/29 03:22:34;;;;;;;18.75;9.50;;;;;;;-0.85;100.00;101597.16;20892907;28;20463;-69
2023/01/29 03:32:53;;;;;;;16.27;8.40;;;;;;;-1.02;100.00;101587.72;20890096;28;20045;-69
2023/01/29 03:42:55;;;;;;;16.88;8.63;;;;;;;-1.09;100.00;101590.81;20892859;28;20049;-69
2023/01/29 03:52:56;;;;;;;20.27;9.98;;;;;;;-1.11;100.00;101607.81;20889138;28;20053;-69
2023/01/29 04:02:57;;;;;;;21.55;9.65;;;;;;;-1.39;100.00;101595.25;20890082;28;20772;-69
2023/01/29 04:12:59;;;;;;;18.70;9.60;;;;;;;-1.67;100.00;101609.22;20890228;28;20048;-69
2023/01/29 04:23:00;;;;;;;18.75;10.05;;;;;;;-1.72;100.00;101610.69;20889300;28;20052;-69
2023/01/29 04:33:19;;;;;;;20.98;9.63;;;;;;;-1.69;100.00;101626.22;20885999;28;20045;-69
2023/01/29 04:43:38;;;;;;;18.20;9.32;;;;;;;-1.72;100.00;101617.50;20901016;28;20053;-69
2023/01/29 04:53:57;;;;;;;22.90;9.77;;;;;;;-1.62;100.00;101610.34;20902778;28;20056;-69
2023/01/29 05:04:16;;;;;;;21.17;9.77;;;;;;;-1.55;100.00;101624.41;20900122;28;20053;-69
2023/01/29 05:14:35;;;;;;;25.70;10.63;;;;;;;-1.52;100.00;101598.00;20902886;28;20504;-69
2023/01/29 05:24:54;;;;;;;23.88;10.55;;;;;;;-1.49;100.00;101581.03;20900598;28;20473;-69
2023/01/29 05:35:12;;;;;;;21.98;10.13;;;;;;;-1.51;100.00;101574.09;20900369;28;20076;-70
2023/01/29 05:45:31;;;;;;;22.67;10.70;;;;;;;-1.62;100.00;101581.22;20899964;28;20045;-69
2023/01/29 05:55:50;;;;;;;19.70;9.35;;;;;;;-1.59;100.00;101601.91;20897367;28;20045;-68
2023/01/29 06:06:09;;;;;;;22.00;10.50;;;;;;;-1.55;100.00;101614.13;20896052;28;20053;-69
2023/01/29 06:16:28;;;;;;;23.45;11.27;;;;;;;-1.46;100.00;101614.59;20897256;28;20161;-70
2023/01/29 06:26:47;;;;;;;21.80;10.23;;;;;;;-1.33;100.00;101604.16;20897572;28;20040;-71
2023/01/29 06:37:06;;;;;;;23.38;10.30;;;;;;;-1.29;100.00;101594.94;20895890;28;20452;-71
2023/01/29 06:47:08;;;;;;;19.85;10.32;;;;;;;-1.27;100.00;101606.16;20895699;28;20048;-71
2023/01/29 06:57:09;;;;;;;21.52;11.25;;;;;;;-1.31;100.00;101614.50;20891399;22;20057;-82
2023/01/29 07:07:12;;;;;;;25.92;13.40;;;;;;;-1.26;100.00;101604.47;20829176;28;20322;-82
2023/01/29 07:17:13;;;;;;;19.90;10.20;;;;;;;-1.33;100.00;101601.59;20827680;28;20056;-82
2023/01/29 07:27:14;;;;;;;23.05;10.48;;;;;;;-1.27;100.00;101602.72;20842831;28;20049;-82
2023/01/29 07:37:16;;;;;;;19.90;9.68;;;;;;;-1.19;100.00;101622.00;20826030;28;20049;-82
2023/01/29 07:47:17;;;;;;;21.25;10.40;;;;;;;-1.10;100.00;101643.03;20824892;28;20046;-81
2023/01/29 07:57:18;;;;;;;21.83;9.90;;;;;;;-1.17;100.00;101639.22;20836816;28;20041;-80
2023/01/29 08:07:22;;;;;;;25.60;11.45;;;;;;;-1.32;100.00;101647.03;20820816;28;20053;-80
2023/01/29 08:17:24;;;;;;;23.05;11.18;;;;;;;-1.26;100.00;101648.16;20848475;28;20045;-81
2023/01/29 08:27:42;;;;;;;22.83;10.40;;;;;;;-1.19;100.00;101660.53;20829546;28;20105;-79
2023/01/29 08:37:44;;;;;;;23.48;10.77;;;;;;;-1.01;100.00;101666.59;20819697;28;20076;-81
2023/01/29 08:47:45;;;;;;;27.20;12.10;;;;;;;-0.89;100.00;101661.22;20848541;28;20136;-81
2023/01/29 08:57:47;;;;;;;23.02;10.82;;;;;;;-0.70;100.00;101647.59;20835729;28;20129;-82
2023/01/29 09:07:48;;;;;;;21.85;10.52;;;;;;;-0.50;100.00;101662.31;20850541;28;20042;-79
2023/01/29 09:17:49;;;;;;;20.23;9.63;;;;;;;-0.49;100.00;101692.38;20852408;28;20457;-79
2023/01/29 09:27:51;;;;;;;24.15;11.30;;;;;;;-0.22;100.00;101633.66;20841889;28;20068;-81
2023/01/29 09:37:52;;;;;;;17.75;9.15;;;;;;;0.31;100.00;101606.06;20830246;28;20096;-79
2023/01/29 09:47:53;;;;;;;14.45;8.02;;;;;;;0.38;100.00;101600.34;20816793;28;20544;-79
2023/01/29 09:57:55;;;;;;;17.58;8.65;;;;;;;0.60;100.00;101595.34;20835482;28;20125;-79
2023/01/29 10:07:56;;;;;;;15.93;8.15;;;;;;;0.68;100.00;101613.72;20828524;28;20049;-79
2023/01/29 10:17:58;;;;;;;16.88;8.60;;;;;;;0.90;100.00;101608.66;20822920;28;20119;-79
2023/01/29 10:27:59;;;;;;;14.68;7.88;;;;;;;1.55;100.00;101625.13;20823125;28;20141;-79
2023/01/29 10:38:02;;;;;;;21.10;9.88;;;;;;;1.33;100.00;101644.00;20833628;28;20041;-81
2023/01/29 10:48:04;;;;;;;15.15;8.02;;;;;;;1.15;100.00;101626.09;20823713;28;20127;-82
2023/01/29 10:58:06;;;;;;;16.80;7.47;;;;;;;1.14;100.00;101610.53;20817669;28;20049;-81
2023/01/29 11:08:07;;;;;;;16.30;8.52;;;;;;;1.16;100.00;101576.25;20816292;28;20056;-80
2023/01/29 11:18:26;;;;;;;14.10;7.65;;;;;;;1.33;100.00;101570.88;20822389;28;20128;-80
2023/01/29 11:28:45;;;;;;;14.13;7.18;;;;;;;1.52;100.00;101563.06;20817258;28;20041;-80
2023/01/29 11:39:04;;;;;;;17.92;8.50;;;;;;;1.50;100.00;101554.38;20814622;28;20041;-80
2023/01/29 11:49:23;;;;;;;16.10;7.93;;;;;;;1.49;100.00;101519.97;20847026;28;20104;-79
2023/01/29 11:59:43;;;;;;;18.92;8.88;;;;;;;1.75;100.00;101509.75;20887514;28;20045;-79
2023/01/29 12:09:45;;;;;;;16.47;8.17;;;;;;;2.04;100.00;101487.56;20887914;28;20051;-80
2023/01/29 12:19:47;;;;;;;15.65;7.97;;;;;;;1.94;99.18;101462.25;20882919;28;20091;-80
2023/01/29 12:29:48;;;;;;;15.23;8.20;;;;;;;1.94;100.00;101450.22;20883945;28;20045;-80
2023/01/29 12:39:49;;;;;;;10.52;5.90;;;;;;;2.04;99.53;101425.59;20879363;28;20037;-80
2023/01/29 12:49:51;;;;;;;12.27;5.72;;;;;;;2.12;99.48;101405.19;20888034;28;20701;-79
2023/01/29 13:00:10;;;;;;;10.30;5.25;;;;;;;2.63;98.50;101375.03;20907355;28;20037;-80
2023/01/29 13:10:29;;;;;;;10.20;4.70;;;;;;;2.80;97.53;101378.16;20909534;28;20041;-79
2023/01/29 13:20:30;;;;;;;9.57;5.65;;;;;;;2.80;98.20;101381.63;20898089;28;20044;-80
2023/01/29 13:30:32;;;;;;;8.68;4.97;;;;;;;2.93;96.14;101366.50;20923491;28;20155;-80
2023/01/29 13:40:34;;;;;;;9.02;5.10;;;;;;;3.13;96.35;101369.69;20895961;28;20049;-80
2023/01/29 13:50:35;;;;;;;10.60;5.18;;;;;;;2.92;98.57;101359.53;20914071;28;20040;-81
2023/01/29 14:00:37;;;;;;;11.90;5.78;;;;;;;2.87;100.00;101359.41;20910488;28;20554;-82
2023/01/29 14:10:56;;;;;;;11.18;6.25;;;;;;;2.92;97.63;101346.59;20915732;28;20585;-80
2023/01/29 14:21:15;;;;;;;11.48;5.78;;;;;;;2.76;97.82;101333.22;20901246;28;20045;-81
2023/01/29 14:31:17;;;;;;;11.55;6.25;;;;;;;2.77;100.00;101328.91;20955311;22;20048;-69
2023/01/29 14:41:18;;;;;;;13.48;6.88;;;;;;;2.82;100.00;101320.47;20976006;28;20062;-71
2023/01/29 14:51:19;;;;;;;11.20;6.53;;;;;;;2.53;100.00;101324.72;20971245;28;20052;-70
2023/01/29 15:01:20;;;;;;;13.60;7.05;;;;;;;2.21;100.00;101331.47;20973751;28;20102;-71
2023/01/29 15:11:34;;;;;;;16.67;8.43;;;;;;;2.12;100.00;101332.88;20977764;28;20143;-69
2023/01/29 15:21:36;;;;;;;15.57;8.15;;;;;;;2.05;100.00;101342.97;20972687;28;20147;-70
2023/01/29 15:31:37;;;;;;;14.75;8.27;;;;;;;1.98;100.00;101334.97;20972750;28;20427;-70
2023/01/29 15:41:38;;;;;;;15.60;8.30;;;;;;;1.78;100.00;101330.00;20971143;28;20045;-72
2023/01/29 15:51:39;;;;;;;16.60;9.57;;;;;;;1.63;100.00;101334.63;20973000;28;20110;-70
2023/01/29 16:01:41;;;;;;;18.48;8.90;;;;;;;1.38;100.00;101329.41;20969245;28;20488;-70
2023/01/29 16:11:43;;;;;;;14.88;8.90;;;;;;;1.20;100.00;101340.81;20970191;28;20048;-70
2023/01/29 16:21:45;;;;;;;19.75;8.98;;;;;;;0.96;100.00;101345.06;20970213;28;20048;-70
2023/01/29 16:31:47;;;;;;;16.10;8.27;;;;;;;0.75;100.00;101340.81;20973354;28;20040;-70
2023/01/29 16:41:48;;;;;;;25.70;10.82;;;;;;;0.56;100.00;101329.72;20999585;28;20048;-71
2023/01/29 16:51:49;;;;;;;18.02;9.65;;;;;;;0.36;100.00;101322.06;20991890;28;20060;-68
2023/01/29 17:01:51;;;;;;;19.08;9.95;;;;;;;0.21;100.00;101332.63;20986480;28;20495;-68
2023/01/29 17:11:52;;;;;;;19.15;9.75;;;;;;;0.07;100.00;101320.88;20994889;28;20160;-68
2023/01/29 17:22:14;;;;;;;41.83;17.42;;;;;;;-0.07;100.00;101304.88;20988583;28;20048;-68
2023/01/29 17:32:33;;;;;;;23.17;11.35;;;;;;;-0.12;100.00;101315.78;20980297;28;20146;-68
2023/01/29 17:42:52;;;;;;;19.70;10.05;;;;;;;-0.17;100.00;101319.88;20977185;28;20087;-68
2023/01/29 17:53:11;;;;;;;32.67;13.50;;;;;;;-0.29;100.00;101326.25;20971106;28;20040;-68
2023/01/29 18:03:30;;;;;;;29.80;14.20;;;;;;;-0.41;100.00;101325.72;20975498;28;20052;-68
2023/01/29 18:13:48;;;;;;;28.70;13.68;;;;;;;-0.45;100.00;101326.41;20973281;28;20584;-68
2023/01/29 18:23:50;;;;;;;30.80;16.50;;;;;;;-0.42;100.00;101336.84;20974899;28;20052;-68
2023/01/29 18:33:52;;;;;;;22.60;12.30;;;;;;;-0.49;100.00;101344.19;20972442;28;20064;-68
2023/01/29 18:43:53;;;;;;;26.60;13.80;;;;;;;-0.65;100.00;101358.09;20982170;28;20048;-68
2023/01/29 18:53:54;;;;;;;30.55;15.45;;;;;;;-0.67;100.00;101350.31;20970723;28;20451;-68
2023/01/29 19:03:58;;;;;;;26.95;13.10;;;;;;;-0.54;100.00;101357.72;20970819;28;20062;-68
2023/01/29 19:14:17;;;;;;;27.25;14.30;;;;;;;-0.62;100.00;101351.41;20968461;28;20044;-68
2023/01/29 19:24:37;;;;;;;26.05;13.07;;;;;;;-0.76;100.00;101349.91;20969673;28;20045;-68
2023/01/29 19:34:57;;;;;;;31.88;14.00;;;;;;;-0.89;100.00;101353.59;20969109;28;21613;-68
2023/01/29 19:45:15;;;;;;;32.80;15.88;;;;;;;-1.01;100.00;101332.44;20967685;28;20049;-68
2023/01/29 19:55:35;;;;;;;34.83;17.48;;;;;;;-1.10;100.00;101342.34;20972129;28;20041;-68
2023/01/29 20:05:36;;;;;;;34.20;16.70;;;;;;;-1.19;100.00;101334.19;20959542;28;20049;-69
2023/01/29 20:15:38;;;;;;;32.25;15.77;;;;;;;-1.27;100.00;101323.53;20967267;28;20438;-68
2023/01/29 20:25:39;;;;;;;31.83;14.68;;;;;;;-1.27;100.00;101317.53;20027217;28;10000725;-68
2023/01/29 20:35:40;;;;;;;29.17;14.32;;;;;;;-1.23;100.00;101328.03;20878251;28;20057;-68
2023/01/29 20:45:42;;;;;;;32.13;14.93;;;;;;;-1.07;100.00;101327.91;20881411;28;20432;-68
2023/01/29 20:56:01;;;;;;;28.42;14.30;;;;;;;-0.72;100.00;101307.16;20881356;28;20057;-68
2023/01/29 21:06:21;;;;;;;28.40;13.55;;;;;;;-0.76;100.00;101300.16;20881349;28;20070;-67
2023/01/29 21:16:40;;;;;;;31.35;15.52;;;;;;;-0.99;100.00;101293.97;20880464;28;20040;-68
2023/01/29 21:26:41;;;;;;;31.55;15.63;;;;;;;-1.14;100.00;101304.44;20897416;28;20079;-68
2023/01/29 21:36:43;;;;;;;33.55;16.10;;;;;;;-1.26;100.00;101298.72;20897206;28;20136;-68
2023/01/29 21:46:44;;;;;;;33.88;16.98;;;;;;;-1.25;100.00;101305.63;20893611;28;20064;-68
2023/01/29 21:56:45;;;;;;;33.03;16.13;;;;;;;-1.16;100.00;101300.91;20901412;28;20053;-68
2023/01/29 22:06:46;;;;;;;29.92;15.80;;;;;;;-1.08;100.00;101279.03;20892788;28;20049;-70
2023/01/29 22:16:48;;;;;;;36.55;16.77;;;;;;;-1.12;100.00;101279.69;20895646;28;20053;-70
2023/01/29 22:27:07;;;;;;;34.85;16.38;;;;;;;-1.17;100.00;101264.06;20898659;28;20057;-70
2023/01/29 22:37:08;;;;;;;34.42;16.58;;;;;;;-1.23;100.00;101235.53;20896088;28;20102;-71
2023/01/29 22:47:10;;;;;;;31.20;16.10;;;;;;;-1.28;100.00;101220.72;20887329;28;20056;-70
2023/01/29 22:57:11;;;;;;;31.40;16.00;;;;;;;-1.14;100.00;101206.81;20891769;28;20053;-70
2023/01/29 23:07:12;;;;;;;31.52;15.23;;;;;;;-1.04;100.00;101202.13;20889262;28;20057;-68
2023/01/29 23:17:13;;;;;;;31.27;15.25;;;;;;;-0.93;100.00;101197.44;20889284;28;20511;-67
2023/01/29 23:27:32;;;;;;;31.38;14.85;;;;;;;-1.00;100.00;101181.72;20892182;28;20533;-71
2023/01/29 23:37:51;;;;;;;35.72;17.95;;;;;;;-1.19;100.00;101162.91;20890461;28;20525;-71
2023/01/29 23:48:10;;;;;;;30.20;15.25;;;;;;;-1.23;100.00;101160.16;20889524;28;20441;-72
2023/01/29 23:58:29;;;;;;;35.72;16.80;;;;;;;-1.20;100.00;101148.28;20888122;28;20471;-72
